createdAt,value
2022-09-09T00:02:56.787Z,2.58
2022-09-09T00:08:05.209Z,2.60
2022-09-09T00:13:20.719Z,2.17
2022-09-09T00:19:01.878Z,2.38
2022-09-09T00:24:31.282Z,2.15
2022-09-09T00:29:45.966Z,2.95
2022-09-09T00:35:11.861Z,2.50
2022-09-09T00:41:00.004Z,3.10
2022-09-09T00:46:41.207Z,3.10
2022-09-09T00:51:55.842Z,3.53
2022-09-09T00:57:19.879Z,3.22
2022-09-09T01:07:27.835Z,3.37
2022-09-09T01:12:43.101Z,3.28
2022-09-09T01:18:05.983Z,4.10
2022-09-09T01:23:43.508Z,4.32
2022-09-09T01:28:58.201Z,4.05
2022-09-09T01:34:16.421Z,4.47
2022-09-09T01:39:21.808Z,4.85
2022-09-09T01:44:32.558Z,5.38
2022-09-09T01:49:38.786Z,4.47
2022-09-09T01:54:50.598Z,5.45
2022-09-09T02:00:09.076Z,4.95
2022-09-09T02:05:28.318Z,5.35
2022-09-09T02:10:38.368Z,4.18
2022-09-09T02:16:14.019Z,6.20
2022-09-09T02:21:18.935Z,5.07
2022-09-09T02:26:22.921Z,6.07
2022-09-09T02:31:31.813Z,6.72
2022-09-09T02:36:41.689Z,7.53
2022-09-09T02:41:44.628Z,6.50
2022-09-09T02:47:09.331Z,6.75
2022-09-09T02:52:20.922Z,5.45
2022-09-09T02:57:26.684Z,5.78
2022-09-09T03:02:31.938Z,5.03
2022-09-09T03:07:40.964Z,6.28
2022-09-09T03:12:45.223Z,4.53
2022-09-09T03:17:49.329Z,6.05
2022-09-09T03:22:52.133Z,5.20
2022-09-09T03:27:56.284Z,5.65
2022-09-09T03:33:00.368Z,5.00
2022-09-09T03:38:08.026Z,6.97
2022-09-09T03:43:12.994Z,6.35
2022-09-09T03:48:18.413Z,6.18
2022-09-09T03:53:24.137Z,6.57
2022-09-09T03:58:27.981Z,6.55
2022-09-09T04:03:35.969Z,7.45
2022-09-09T04:08:39.676Z,6.78
2022-09-09T04:13:43.480Z,7.35
2022-09-09T04:18:49.568Z,6.50
2022-09-09T04:23:53.598Z,7.50
2022-09-09T04:28:57.149Z,6.50
2022-09-09T04:34:06.513Z,7.50
2022-09-09T04:39:09.934Z,6.80
2022-09-09T04:44:12.609Z,6.30
2022-09-09T04:49:16.007Z,6.97
2022-09-09T04:54:20.284Z,7.30
2022-09-09T04:59:23.967Z,7.57
2022-09-09T05:04:30.952Z,8.32
2022-09-09T05:09:34.673Z,7.53
2022-09-09T05:14:38.591Z,7.47
2022-09-09T05:24:45.594Z,7.22
2022-09-09T05:29:49.612Z,8.60
2022-09-09T05:34:53.294Z,8.45
2022-09-09T05:39:57.780Z,7.67
2022-09-09T05:45:00.541Z,7.55
2022-09-09T05:50:04.133Z,7.10
2022-09-09T05:55:07.685Z,7.35
2022-09-09T06:00:11.437Z,6.55
2022-09-09T06:05:17.257Z,7.90
2022-09-09T06:10:20.786Z,8.10
2022-09-09T06:15:23.569Z,7.15
2022-09-09T06:20:26.455Z,8.40
2022-09-09T06:25:29.722Z,8.30
2022-09-09T06:30:32.893Z,5.82
2022-09-09T06:35:37.028Z,5.17
2022-09-09T06:40:40.856Z,3.77
2022-09-09T06:45:45.270Z,4.20
2022-09-09T06:50:48.588Z,4.72
2022-09-09T06:55:53.787Z,5.47
2022-09-09T07:01:07.648Z,4.38
2022-09-09T07:06:18.066Z,4.55
2022-09-09T07:11:23.701Z,4.90
2022-09-09T07:16:28.711Z,4.60
2022-09-09T07:21:35.751Z,5.65
2022-09-09T07:27:00.049Z,4.43
2022-09-09T07:32:23.518Z,3.72
2022-09-09T07:37:26.378Z,3.80
2022-09-09T07:42:29.842Z,4.50
2022-09-09T07:47:36.523Z,4.05
2022-09-09T07:52:39.918Z,4.85
2022-09-09T07:57:44.030Z,5.40
2022-09-09T08:02:48.667Z,6.43
2022-09-09T08:07:51.731Z,4.80
2022-09-09T08:13:16.856Z,4.70
2022-09-09T08:18:18.836Z,5.10
2022-09-09T08:23:22.463Z,4.60
2022-09-09T08:28:26.100Z,4.30
2022-09-09T08:33:29.082Z,3.83
2022-09-09T08:38:32.041Z,3.83
2022-09-09T08:43:35.233Z,4.22
2022-09-09T08:49:07.904Z,4.13
2022-09-09T08:54:11.240Z,4.57
2022-09-09T08:59:18.978Z,5.07
2022-09-09T09:04:42.909Z,4.22
2022-09-09T09:10:40.489Z,3.72
2022-09-09T09:15:43.824Z,3.90
2022-09-09T09:20:59.841Z,4.05
2022-09-09T09:26:09.537Z,4.30
2022-09-09T09:31:13.744Z,4.50
2022-09-09T09:36:56.213Z,4.20
2022-09-09T09:42:05.153Z,4.28
2022-09-09T09:47:16.297Z,3.67
2022-09-09T09:52:43.486Z,3.30
2022-09-09T09:57:47.938Z,3.85
2022-09-09T10:02:53.037Z,3.40
2022-09-09T10:08:04.517Z,4.03
2022-09-09T10:13:20.861Z,3.42
2022-09-09T10:19:20.599Z,4.38
2022-09-09T10:24:32.402Z,3.97
2022-09-09T10:30:12.750Z,3.67
2022-09-09T10:35:38.833Z,4.00
2022-09-09T10:41:13.548Z,4.30
2022-09-09T10:46:32.017Z,3.25
2022-09-09T10:51:58.350Z,3.90
2022-09-09T10:57:33.140Z,4.20
2022-09-09T11:02:36.268Z,3.97
2022-09-09T11:07:42.486Z,3.45
2022-09-09T11:12:48.756Z,3.67
2022-09-09T11:17:56.231Z,3.72
2022-09-09T11:23:14.690Z,4.20
2022-09-09T11:28:45.279Z,4.63
2022-09-09T11:34:15.328Z,4.85
2022-09-09T11:39:43.142Z,5.63
2022-09-09T11:44:47.170Z,4.68
2022-09-09T11:49:49.960Z,4.38
2022-09-09T11:54:53.515Z,5.15
2022-09-09T11:59:56.611Z,4.67
2022-09-09T12:05:09.785Z,4.22
2022-09-09T12:10:23.747Z,4.35
2022-09-09T12:15:30.229Z,4.50
2022-09-09T12:20:37.968Z,3.78
2022-09-09T12:25:50.109Z,3.85
2022-09-09T12:31:32.258Z,2.97
2022-09-09T12:36:35.329Z,3.15
2022-09-09T12:41:37.956Z,2.80
2022-09-09T12:46:43.924Z,3.58
2022-09-09T12:51:47.029Z,3.92
2022-09-09T12:56:50.380Z,3.17
2022-09-09T13:02:00.244Z,3.83
2022-09-09T13:07:11.180Z,4.22
2022-09-09T13:12:20.382Z,3.83
2022-09-09T13:17:25.715Z,3.78
2022-09-09T13:22:39.021Z,3.35
2022-09-09T13:28:00.737Z,3.40
2022-09-09T13:33:20.823Z,3.17
2022-09-09T13:38:27.484Z,4.10
2022-09-09T13:43:45.655Z,3.97
2022-09-09T13:48:59.630Z,4.25
2022-09-09T13:59:07.358Z,5.05
2022-09-09T14:04:11.872Z,4.88
2022-09-09T14:09:16.832Z,4.43
2022-09-09T14:14:19.469Z,4.28
2022-09-09T14:19:23.763Z,5.00
2022-09-09T14:24:26.448Z,4.60
2022-09-09T14:29:47.812Z,4.13
2022-09-09T14:34:50.827Z,3.75
2022-09-09T14:39:55.111Z,3.47
2022-09-09T14:44:58.994Z,3.40
2022-09-09T14:50:04.207Z,4.05
2022-09-09T14:55:08.415Z,3.40
2022-09-09T15:00:12.691Z,4.15
2022-09-09T15:05:16.222Z,4.05
2022-09-09T15:10:19.113Z,4.22
2022-09-09T15:15:22.319Z,4.00
2022-09-09T15:20:25.049Z,3.50
2022-09-09T15:25:28.011Z,4.53
2022-09-09T15:30:31.215Z,3.10
2022-09-09T15:35:33.927Z,3.80
2022-09-09T15:40:39.970Z,4.40
2022-09-09T15:45:43.286Z,3.75
2022-09-09T15:50:46.245Z,4.57
2022-09-09T15:55:49.823Z,4.10
2022-09-09T16:00:57.883Z,4.07
2022-09-09T16:06:02.018Z,3.80
2022-09-09T16:11:29.314Z,3.70
2022-09-09T16:16:32.215Z,3.25
2022-09-09T16:21:53.218Z,2.50
2022-09-09T16:26:56.097Z,3.42
2022-09-09T16:32:03.590Z,3.63
2022-09-09T16:37:07.850Z,3.55
2022-09-09T16:42:11.739Z,2.92
2022-09-09T16:47:14.354Z,3.55
2022-09-09T16:52:20.598Z,3.40
2022-09-09T16:57:23.415Z,3.65
2022-09-09T17:02:26.649Z,3.40
2022-09-09T17:07:29.503Z,4.00
2022-09-09T17:12:32.749Z,3.30
2022-09-09T17:17:36.156Z,4.03
2022-09-09T17:22:40.060Z,3.53
2022-09-09T17:27:42.660Z,3.72
2022-09-09T17:32:47.922Z,4.40
2022-09-09T17:37:50.595Z,4.38
2022-09-09T17:42:53.678Z,3.75
2022-09-09T17:47:56.321Z,4.20
2022-09-09T17:52:59.205Z,4.43
2022-09-09T17:58:02.914Z,4.38
2022-09-09T18:03:05.801Z,4.05
2022-09-09T18:08:08.473Z,5.07
2022-09-09T18:13:11.153Z,5.85
2022-09-09T18:18:14.315Z,7.60
2022-09-09T18:23:16.993Z,6.28
2022-09-09T18:28:24.521Z,6.65
2022-09-09T18:33:28.116Z,6.05
2022-09-09T18:38:35.574Z,5.95
2022-09-09T18:43:39.049Z,7.35
2022-09-09T18:48:45.805Z,6.47
2022-09-09T18:53:58.865Z,6.93
2022-09-09T18:59:03.911Z,8.82
2022-09-09T19:04:08.638Z,9.55
2022-09-09T19:09:12.941Z,10.20
2022-09-09T19:19:22.574Z,10.73
2022-09-09T19:24:30.218Z,11.88
2022-09-09T19:29:36.503Z,12.38
2022-09-09T19:34:39.263Z,12.02
2022-09-09T19:39:42.032Z,9.63
2022-09-09T19:44:44.804Z,8.30
2022-09-09T19:49:47.794Z,10.27
2022-09-09T19:54:50.762Z,8.98
2022-09-09T19:59:53.326Z,10.68
2022-09-09T20:04:56.396Z,9.52
2022-09-09T20:09:58.993Z,8.43
2022-09-09T20:15:01.767Z,8.52
2022-09-09T20:20:04.844Z,9.70
2022-09-09T20:25:07.930Z,10.30
2022-09-09T20:30:11.049Z,10.82
2022-09-09T20:35:15.541Z,10.95
2022-09-09T20:45:23.411Z,10.97
2022-09-09T20:50:27.184Z,11.40
2022-09-09T20:55:34.562Z,10.20
2022-09-09T21:00:38.491Z,10.25
2022-09-09T21:05:41.111Z,12.57
2022-09-09T21:10:47.127Z,11.50
2022-09-09T21:15:51.008Z,12.23
2022-09-09T21:20:54.447Z,9.82
2022-09-09T21:25:58.516Z,13.98
2022-09-09T21:31:01.287Z,8.98
2022-09-09T21:36:05.974Z,10.57
2022-09-09T21:41:13.769Z,15.25
2022-09-09T21:46:17.806Z,13.15
2022-09-09T21:51:20.985Z,10.55
2022-09-09T21:56:23.975Z,14.88
2022-09-09T22:01:26.640Z,13.45
2022-09-09T22:06:48.319Z,13.57
2022-09-09T22:11:52.778Z,15.50
2022-09-09T22:16:55.462Z,15.15
2022-09-09T22:21:58.583Z,15.60
2022-09-09T22:27:01.969Z,12.02
2022-09-09T22:32:05.754Z,13.75
2022-09-09T22:37:08.786Z,16.80
2022-09-09T22:42:12.562Z,10.75
2022-09-09T22:47:17.909Z,16.73
2022-09-09T22:52:20.576Z,11.40
2022-09-09T22:57:43.301Z,13.77
2022-09-09T23:02:51.984Z,16.30
2022-09-09T23:07:58.648Z,11.77
2022-09-09T23:13:01.824Z,15.23
2022-09-09T23:18:04.458Z,11.30
2022-09-09T23:23:07.807Z,14.50
2022-09-09T23:28:10.549Z,12.55
2022-09-09T23:33:13.106Z,14.20
2022-09-09T23:38:15.856Z,15.68
2022-09-09T23:43:18.504Z,12.63
2022-09-09T23:48:21.327Z,13.98
2022-09-09T23:53:23.891Z,14.15
2022-09-09T23:58:26.765Z,14.75
